Time;durP1;ratioP1;P1;durP2;ratioP2;P2;SDS_P1;SDS_P2;PMS_P1;PMS_P2;Temp;Humidity;BMP_temperature;BMP_pressure;BME280_temperature;BME280_humidity;BME280_pressure;Samples;Min_cycle;Max_cycle;Signal;HPM_P1;HPM_P2
2022/04/04 00:02:26;;;;;;;8.27;7.30;;;;;;;0.18;100.00;99773.28;4877992;29;20704;-76
2022/04/04 00:04:53;;;;;;;7.60;6.80;;;;;;;0.12;100.00;99773.88;4878423;29;20239;-76
2022/04/04 00:07:20;;;;;;;6.33;5.73;;;;;;;0.10;100.00;99767.09;4878173;29;20243;-76
2022/04/04 00:09:47;;;;;;;7.30;5.63;;;;;;;0.12;100.00;99771.25;4875712;29;20263;-76
2022/04/04 00:12:13;;;;;;;6.33;5.70;;;;;;;0.12;100.00;99770.41;4877579;29;20235;-76
2022/04/04 00:14:40;;;;;;;5.53;5.03;;;;;;;0.07;100.00;99767.41;4877389;29;20236;-76
2022/04/04 00:17:07;;;;;;;6.33;5.47;;;;;;;0.01;100.00;99766.19;4877996;29;20239;-76
2022/04/04 00:19:34;;;;;;;6.17;5.43;;;;;;;0.09;100.00;99757.56;4878523;29;20235;-76
2022/04/04 00:22:02;;;;;;;5.50;4.97;;;;;;;0.08;100.00;99762.00;4877437;29;20282;-75
2022/04/04 00:24:30;;;;;;;5.70;5.20;;;;;;;0.03;100.00;99766.03;4878564;29;20607;-76
2022/04/04 00:26:57;;;;;;;6.17;5.47;;;;;;;-0.01;100.00;99768.16;4877860;29;20300;-76
2022/04/04 00:29:24;;;;;;;6.53;5.50;;;;;;;-0.02;100.00;99766.50;4876223;29;20784;-76
2022/04/04 00:31:52;;;;;;;6.30;5.70;;;;;;;-0.17;100.00;99762.69;4872744;29;20231;-75
2022/04/04 00:34:19;;;;;;;9.00;5.90;;;;;;;-0.29;100.00;99766.53;4877820;29;20291;-76
2022/04/04 00:36:47;;;;;;;7.50;6.30;;;;;;;-0.35;100.00;99769.72;4877974;29;20264;-75
2022/04/04 00:39:19;;;;;;;6.33;5.73;;;;;;;-0.45;100.00;99769.78;4880873;29;20330;-76
2022/04/04 00:41:47;;;;;;;6.23;5.63;;;;;;;-0.53;100.00;99770.53;4877957;29;20250;-76
2022/04/04 00:44:14;;;;;;;6.60;6.00;;;;;;;-0.58;100.00;99761.41;4877795;29;20251;-76
2022/04/04 00:46:42;;;;;;;5.93;5.40;;;;;;;-0.59;100.00;99765.81;4877919;29;20243;-76
2022/04/04 00:49:09;;;;;;;6.10;5.50;;;;;;;-0.63;100.00;99761.00;4876212;29;20318;-76
2022/04/04 00:51:36;;;;;;;6.60;5.97;;;;;;;-0.66;100.00;99764.75;4878077;29;20227;-76
2022/04/04 00:54:04;;;;;;;6.67;6.03;;;;;;;-0.66;100.00;99764.75;4881309;29;20257;-75
2022/04/04 00:56:32;;;;;;;8.80;6.37;;;;;;;-0.69;100.00;99758.94;4881535;29;20238;-76
2022/04/04 00:59:00;;;;;;;6.53;5.90;;;;;;;-0.62;100.00;99760.03;4881561;29;20716;-76
2022/04/04 01:01:27;;;;;;;5.93;5.40;;;;;;;-0.71;100.00;99764.38;4881215;29;20243;-76
2022/04/04 01:03:55;;;;;;;5.87;5.30;;;;;;;-0.77;100.00;99764.94;4881537;29;20642;-76
2022/04/04 01:06:21;;;;;;;6.07;5.47;;;;;;;-0.79;100.00;99760.81;4880831;29;20239;-76
2022/04/04 01:08:48;;;;;;;6.00;5.33;;;;;;;-0.86;100.00;99759.69;4881290;29;20235;-76
2022/04/04 01:11:16;;;;;;;6.20;5.60;;;;;;;-0.91;100.00;99758.34;4880310;29;20254;-76
2022/04/04 01:13:47;;;;;;;6.33;5.53;;;;;;;-0.82;100.00;99763.69;4881274;29;20246;-76
2022/04/04 01:16:14;;;;;;;6.20;5.60;;;;;;;-0.94;100.00;99752.53;4880707;29;20291;-76
2022/04/04 01:18:42;;;;;;;6.33;5.17;;;;;;;-0.99;100.00;99754.78;4880925;29;20263;-76
2022/04/04 01:21:09;;;;;;;5.20;4.70;;;;;;;-1.02;100.00;99757.66;4880883;29;20232;-76
2022/04/04 01:23:41;;;;;;;6.30;5.33;;;;;;;-1.02;100.00;99758.50;4881073;29;20235;-76
2022/04/04 01:26:12;;;;;;;5.80;5.17;;;;;;;-1.02;100.00;99755.03;4880447;29;20307;-76
2022/04/04 01:28:39;;;;;;;5.87;5.23;;;;;;;-0.95;100.00;99751.72;4880844;29;20269;-76
2022/04/04 01:31:07;;;;;;;5.73;5.20;;;;;;;-0.86;100.00;99750.00;4880757;29;20266;-76
2022/04/04 01:33:34;;;;;;;5.73;5.13;;;;;;;-0.91;100.00;99754.88;4880867;29;20268;-76
2022/04/04 01:36:00;;;;;;;7.07;5.77;;;;;;;-0.88;100.00;99752.78;4880587;29;20239;-75
2022/04/04 01:38:27;;;;;;;7.23;6.10;;;;;;;-0.77;100.00;99754.41;4880438;29;20231;-76
2022/04/04 01:40:54;;;;;;;6.53;5.63;;;;;;;-0.71;100.00;99758.28;4880511;29;20246;-76
2022/04/04 01:43:21;;;;;;;7.00;6.30;;;;;;;-0.71;100.00;99750.38;4880406;29;20331;-76
2022/04/04 01:48:37;;;;;;;6.63;6.03;;;;;;;-0.77;100.00;99751.78;4878179;29;20235;-76
2022/04/04 01:51:04;;;;;;;6.70;6.10;;;;;;;-0.74;100.00;99746.22;4880473;29;20246;-76
2022/04/04 01:53:32;;;;;;;6.40;5.80;;;;;;;-0.66;100.00;99748.97;4880292;29;20231;-76
2022/04/04 01:56:03;;;;;;;7.20;5.87;;;;;;;-0.62;100.00;99745.06;4881847;29;20243;-76
2022/04/04 01:58:31;;;;;;;6.50;5.83;;;;;;;-0.61;100.00;99751.16;4880806;29;20231;-76
2022/04/04 02:01:01;;;;;;;6.57;5.90;;;;;;;-0.70;100.00;99752.84;4880260;29;20691;-76
2022/04/04 02:03:29;;;;;;;5.87;5.20;;;;;;;-0.85;100.00;99748.22;4879039;29;20330;-76
2022/04/04 02:05:56;;;;;;;7.10;6.40;;;;;;;-0.94;100.00;99752.53;4882731;29;20236;-76
2022/04/04 02:08:23;;;;;;;8.00;6.37;;;;;;;-0.63;100.00;99740.78;4885014;29;20235;-76
2022/04/04 02:10:49;;;;;;;7.23;6.20;;;;;;;-0.77;100.00;99745.69;4880209;29;20239;-76
2022/04/04 02:13:16;;;;;;;6.37;5.77;;;;;;;-0.89;100.00;99742.41;4882639;29;20238;-76
2022/04/04 02:15:43;;;;;;;6.97;6.27;;;;;;;-1.01;100.00;99738.28;4880115;29;20237;-76
2022/04/04 02:18:10;;;;;;;8.73;7.00;;;;;;;-0.77;100.00;99741.25;4879627;29;20231;-76
2022/04/04 02:20:37;;;;;;;7.17;6.47;;;;;;;-0.90;100.00;99741.59;4874960;29;20229;-76
2022/04/04 02:23:05;;;;;;;8.50;7.27;;;;;;;-0.93;100.00;99736.59;4880013;29;20243;-76
2022/04/04 02:25:32;;;;;;;7.83;6.83;;;;;;;-0.92;100.00;99734.81;4879774;29;20243;-76
2022/04/04 02:27:59;;;;;;;7.83;6.83;;;;;;;-1.04;100.00;99735.97;4879859;29;20263;-75
2022/04/04 02:30:25;;;;;;;7.00;6.30;;;;;;;-1.00;100.00;99742.59;4884796;29;20231;-76
2022/04/04 02:32:52;;;;;;;9.87;7.33;;;;;;;-0.96;100.00;99746.59;4879753;29;20619;-76
2022/04/04 02:35:19;;;;;;;7.50;6.70;;;;;;;-1.06;100.00;99740.50;4879919;29;20746;-76
2022/04/04 02:37:47;;;;;;;7.20;6.50;;;;;;;-1.11;100.00;99740.13;4878361;29;20615;-76
2022/04/04 02:40:13;;;;;;;7.30;6.43;;;;;;;-1.07;100.00;99737.06;4879119;29;20251;-76
2022/04/04 02:42:41;;;;;;;7.70;6.90;;;;;;;-1.14;100.00;99735.97;4879288;29;20652;-76
2022/04/04 02:45:08;;;;;;;7.30;6.60;;;;;;;-1.16;100.00;99735.28;4879668;29;20239;-76
2022/04/04 02:47:35;;;;;;;7.93;7.13;;;;;;;-1.20;100.00;99733.09;4878622;29;20791;-76
2022/04/04 02:50:03;;;;;;;8.83;7.40;;;;;;;-1.20;100.00;99731.28;4877155;29;20242;-76
2022/04/04 02:52:29;;;;;;;9.00;8.00;;;;;;;-1.21;100.00;99729.63;4879248;29;20239;-76
2022/04/04 02:54:56;;;;;;;8.67;7.77;;;;;;;-1.24;100.00;99743.06;4879664;29;20267;-76
2022/04/04 02:57:23;;;;;;;9.27;8.27;;;;;;;-1.16;100.00;99737.91;4879141;29;20246;-76
2022/04/04 02:59:50;;;;;;;8.77;7.87;;;;;;;-1.27;100.00;99748.63;4879372;29;20241;-76
2022/04/04 03:02:17;;;;;;;8.70;7.80;;;;;;;-1.10;100.00;99745.25;4878508;29;20259;-76
2022/04/04 03:04:44;;;;;;;9.67;8.57;;;;;;;-0.98;100.00;99748.53;4883426;29;20287;-76
2022/04/04 03:07:11;;;;;;;9.70;8.13;;;;;;;-1.01;100.00;99746.19;4880028;29;20239;-76
2022/04/04 03:09:37;;;;;;;8.23;7.43;;;;;;;-0.88;100.00;99750.16;4876763;29;20328;-76
2022/04/04 03:12:06;;;;;;;10.77;8.50;;;;;;;-0.89;100.00;99745.06;4878428;29;20233;-76
2022/04/04 03:14:33;;;;;;;9.23;7.77;;;;;;;-0.94;100.00;99742.84;4879038;29;20267;-76
2022/04/04 03:16:59;;;;;;;9.90;8.27;;;;;;;-1.02;100.00;99741.88;4868392;29;20235;-76
2022/04/04 03:19:27;;;;;;;10.33;8.30;;;;;;;-0.86;100.00;99736.03;4865838;29;20231;-76
2022/04/04 03:21:56;;;;;;;8.93;8.00;;;;;;;-0.92;100.00;99737.44;4864574;29;20247;-76
2022/04/04 03:24:23;;;;;;;9.43;8.23;;;;;;;-0.79;100.00;99737.94;4872857;29;20235;-76
2022/04/04 03:26:50;;;;;;;9.50;8.27;;;;;;;-0.86;100.00;99728.13;4879045;29;20231;-76
2022/04/04 03:29:17;;;;;;;10.03;9.03;;;;;;;-0.92;100.00;99726.91;4878368;29;20331;-76
2022/04/04 03:31:44;;;;;;;9.53;8.47;;;;;;;-0.94;100.00;99731.50;4873062;29;20712;-76
2022/04/04 03:34:11;;;;;;;9.77;8.73;;;;;;;-1.00;100.00;99727.63;4878221;29;20231;-76
2022/04/04 03:36:38;;;;;;;8.60;7.70;;;;;;;-0.97;100.00;99721.25;4878648;29;20261;-76
2022/04/04 03:39:05;;;;;;;9.17;8.00;;;;;;;-0.79;100.00;99722.13;4878698;29;20318;-76
2022/04/04 03:41:32;;;;;;;8.83;7.93;;;;;;;-0.97;100.00;99716.00;4878434;29;20238;-76
2022/04/04 03:43:59;;;;;;;9.60;7.90;;;;;;;-0.69;100.00;99709.78;4878248;29;20247;-76
2022/04/04 03:46:26;;;;;;;10.83;7.97;;;;;;;-0.81;100.00;99712.75;4878374;29;20819;-76
2022/04/04 03:48:52;;;;;;;8.75;7.88;;;;;;;-0.86;100.00;99707.09;4880085;29;20460;-76
2022/04/04 03:51:19;;;;;;;10.07;9.07;;;;;;;-0.86;100.00;99712.34;4877829;29;20457;-76
2022/04/04 03:53:46;;;;;;;8.93;8.03;;;;;;;-0.86;100.00;99705.28;4878743;29;20253;-76
2022/04/04 03:56:13;;;;;;;8.30;7.50;;;;;;;-0.89;100.00;99710.84;4877966;29;20231;-76
2022/04/04 03:58:40;;;;;;;8.97;7.67;;;;;;;-0.91;100.00;99713.63;4878199;29;20242;-76
2022/04/04 04:01:07;;;;;;;8.07;7.30;;;;;;;-0.90;100.00;99714.47;4878230;29;20227;-76
2022/04/04 04:03:35;;;;;;;8.03;7.23;;;;;;;-0.73;100.00;99710.22;4878044;29;20250;-76
2022/04/04 04:06:11;;;;;;;8.40;7.03;;;;;;;-0.84;100.00;99705.97;4877657;29;20261;-77
2022/04/04 04:08:41;;;;;;;8.97;7.43;;;;;;;-0.89;100.00;99706.41;4877213;29;20334;-78
2022/04/04 04:11:08;;;;;;;9.00;7.23;;;;;;;-0.89;100.00;99706.41;4876969;29;20238;-78
2022/04/04 04:13:36;;;;;;;8.37;7.33;;;;;;;-1.06;100.00;99706.34;4877471;29;20242;-76
2022/04/04 04:16:03;;;;;;;8.50;7.70;;;;;;;-1.22;100.00;99714.00;4878022;29;20298;-75
2022/04/04 04:18:30;;;;;;;9.00;7.57;;;;;;;-1.28;100.00;99706.69;4876774;29;20239;-77
2022/04/04 04:20:57;;;;;;;9.17;8.03;;;;;;;-1.37;100.00;99714.47;4877256;29;20255;-76
2022/04/04 04:23:23;;;;;;;8.50;7.57;;;;;;;-1.44;100.00;99721.22;4875765;29;20235;-76
2022/04/04 04:25:50;;;;;;;9.10;7.97;;;;;;;-1.53;100.00;99714.19;4878070;29;20703;-76
2022/04/04 04:28:18;;;;;;;9.80;8.20;;;;;;;-1.51;100.00;99709.66;4875767;29;20232;-76
2022/04/04 04:30:45;;;;;;;10.17;7.67;;;;;;;-1.63;100.00;99713.38;4876733;29;20588;-76
2022/04/04 04:33:12;;;;;;;10.57;8.10;;;;;;;-1.70;100.00;99717.53;4881802;29;20660;-76
2022/04/04 04:35:39;;;;;;;11.53;9.00;;;;;;;-1.75;100.00;99716.28;4882174;29;20249;-77
2022/04/04 04:38:06;;;;;;;10.57;9.47;;;;;;;-1.80;100.00;99717.53;4876142;29;20299;-76
2022/04/04 04:40:33;;;;;;;11.07;9.50;;;;;;;-1.83;100.00;99711.75;4885908;29;20258;-76
2022/04/04 04:43:00;;;;;;;14.80;9.77;;;;;;;-1.89;100.00;99713.13;4881232;29;20269;-76
2022/04/04 04:45:27;;;;;;;15.80;11.10;;;;;;;-1.90;100.00;99708.00;4881868;29;20233;-77
2022/04/04 04:47:54;;;;;;;12.83;10.40;;;;;;;-1.92;100.00;99716.03;4877626;29;20263;-77
2022/04/04 04:50:23;;;;;;;13.77;11.37;;;;;;;-1.94;100.00;99722.38;4880732;29;20716;-76
2022/04/04 04:52:50;;;;;;;85.60;39.50;;;;;;;-1.92;100.00;99725.72;4884435;29;20253;-76
2022/04/04 04:55:18;;;;;;;81.83;43.13;;;;;;;-1.88;100.00;99720.03;4884233;29;20239;-77
2022/04/04 04:57:46;;;;;;;37.47;22.63;;;;;;;-1.81;100.00;99718.50;4881489;29;20267;-76
2022/04/04 05:00:15;;;;;;;25.73;17.53;;;;;;;-1.75;100.00;99725.00;4880923;29;20237;-76
2022/04/04 05:02:42;;;;;;;26.13;16.57;;;;;;;-1.67;100.00;99725.13;4883958;29;20235;-77
2022/04/04 05:05:09;;;;;;;25.07;15.67;;;;;;;-1.57;100.00;99725.97;4881460;29;20241;-77
2022/04/04 05:07:36;;;;;;;25.83;15.33;;;;;;;-1.49;100.00;99728.72;4881328;29;20258;-76
2022/04/04 05:10:03;;;;;;;24.00;14.30;;;;;;;-1.39;100.00;99726.06;4880900;29;20571;-76
2022/04/04 05:12:29;;;;;;;22.10;14.20;;;;;;;-1.27;100.00;99722.31;4881324;29;20250;-76
2022/04/04 05:14:56;;;;;;;22.87;13.43;;;;;;;-1.15;100.00;99734.31;4880137;29;20343;-77
2022/04/04 05:17:23;;;;;;;23.07;13.53;;;;;;;-1.02;100.00;99728.72;4878815;29;20254;-77
2022/04/04 05:19:53;;;;;;;23.07;14.70;;;;;;;-0.89;100.00;99731.91;4881601;29;20246;-77
2022/04/04 05:22:20;;;;;;;30.10;17.23;;;;;;;-0.73;100.00;99732.09;4883108;29;20245;-77
2022/04/04 05:24:47;;;;;;;33.43;18.27;;;;;;;-0.58;100.00;99740.34;4873963;29;20239;-76
2022/04/04 05:27:13;;;;;;;28.20;17.03;;;;;;;-0.45;100.00;99739.03;4881193;29;20621;-76
2022/04/04 05:29:41;;;;;;;28.63;16.50;;;;;;;-0.30;100.00;99739.34;4875992;29;20235;-77
2022/04/04 05:32:07;;;;;;;29.50;17.10;;;;;;;-0.18;100.00;99734.69;4881383;29;20238;-77
2022/04/04 05:34:34;;;;;;;23.47;14.07;;;;;;;0.04;100.00;99738.72;4884493;29;20232;-77
2022/04/04 05:37:03;;;;;;;23.83;13.33;;;;;;;0.16;100.00;99730.44;4873191;29;20255;-77
2022/04/04 05:39:30;;;;;;;16.00;10.87;;;;;;;0.30;100.00;99734.34;4883399;29;20254;-77
2022/04/04 05:41:57;;;;;;;18.53;12.10;;;;;;;0.44;100.00;99732.00;4881267;29;20239;-77
2022/04/04 05:44:25;;;;;;;17.00;11.63;;;;;;;0.63;100.00;99741.53;4880536;29;20318;-78
2022/04/04 05:46:52;;;;;;;15.47;10.97;;;;;;;0.81;100.00;99731.78;4881518;29;20239;-79
2022/04/04 05:49:19;;;;;;;17.40;10.93;;;;;;;0.94;100.00;99736.63;4877395;29;20244;-79
2022/04/04 05:51:46;;;;;;;10.23;8.90;;;;;;;1.03;100.00;99738.34;4881358;29;20319;-79
2022/04/04 05:54:28;;;;;;;9.30;8.10;;;;;;;1.22;100.00;99740.75;4886788;29;20359;-79
2022/04/04 05:56:55;;;;;;;8.23;7.13;;;;;;;1.35;100.00;99736.88;4881386;29;20247;-79
2022/04/04 05:59:24;;;;;;;8.33;7.03;;;;;;;1.50;100.00;99746.66;4876223;29;20259;-79
2022/04/04 06:01:50;;;;;;;9.07;6.57;;;;;;;1.68;100.00;99739.47;4878040;29;20715;-79
2022/04/04 06:04:17;;;;;;;9.37;7.03;;;;;;;1.98;100.00;99745.16;4879367;29;20239;-79
2022/04/04 06:06:44;;;;;;;7.50;6.57;;;;;;;1.96;100.00;99750.59;4881087;29;20239;-79
2022/04/04 06:09:11;;;;;;;7.27;6.57;;;;;;;2.09;100.00;99745.72;4881314;29;20271;-80
2022/04/04 06:11:38;;;;;;;7.27;6.43;;;;;;;2.16;100.00;99749.34;4881416;29;20589;-79
2022/04/04 06:14:05;;;;;;;8.40;6.50;;;;;;;2.29;100.00;99754.13;4881100;29;20231;-79
2022/04/04 06:16:32;;;;;;;8.17;6.53;;;;;;;2.42;100.00;99746.56;4878978;29;20238;-80
2022/04/04 06:18:59;;;;;;;6.87;6.17;;;;;;;2.56;100.00;99745.91;4882601;29;20263;-78
2022/04/04 06:21:26;;;;;;;7.93;5.83;;;;;;;2.64;100.00;99745.06;4884058;29;20251;-79
2022/04/04 06:23:53;;;;;;;6.30;5.60;;;;;;;2.75;100.00;99742.09;4881378;29;20250;-79
2022/04/04 06:26:19;;;;;;;6.60;6.00;;;;;;;2.90;100.00;99736.94;4882017;29;20692;-79
2022/04/04 06:28:47;;;;;;;6.53;5.73;;;;;;;2.94;100.00;99740.94;4883102;29;20286;-79
2022/04/04 06:31:14;;;;;;;6.50;5.90;;;;;;;3.08;100.00;99737.56;4885389;29;20295;-80
2022/04/04 06:33:41;;;;;;;7.40;5.70;;;;;;;3.21;100.00;99737.06;4884003;29;20236;-80
2022/04/04 06:36:07;;;;;;;6.60;5.90;;;;;;;3.31;100.00;99743.00;4880927;29;20248;-78
2022/04/04 06:38:34;;;;;;;6.27;5.67;;;;;;;3.36;100.00;99736.16;4880217;29;20254;-78
2022/04/04 06:41:01;;;;;;;6.77;5.50;;;;;;;3.51;100.00;99738.91;4875924;29;20300;-78
2022/04/04 06:43:28;;;;;;;5.60;5.10;;;;;;;3.64;100.00;99736.53;4876936;29;20303;-79
2022/04/04 06:45:54;;;;;;;5.93;4.67;;;;;;;3.72;100.00;99733.88;4880090;29;20617;-78
2022/04/04 06:48:23;;;;;;;5.43;4.90;;;;;;;3.82;99.03;99738.97;4879658;29;20303;-79
2022/04/04 06:50:50;;;;;;;5.10;4.57;;;;;;;4.02;91.12;99734.84;4882255;29;20318;-79
2022/04/04 06:53:16;;;;;;;4.80;4.40;;;;;;;3.95;89.62;99731.28;4877588;29;20247;-79
2022/04/04 06:55:44;;;;;;;5.10;4.60;;;;;;;3.99;88.23;99728.09;4878895;29;20262;-79
2022/04/04 06:58:11;;;;;;;7.33;5.27;;;;;;;4.10;89.22;99726.88;4879549;29;20239;-79
2022/04/04 07:00:38;;;;;;;6.20;4.63;;;;;;;4.15;89.56;99727.19;4885270;29;20260;-79
2022/04/04 07:03:08;;;;;;;4.93;4.43;;;;;;;4.26;87.22;99726.75;4879686;29;20314;-79
2022/04/04 07:05:36;;;;;;;4.60;4.20;;;;;;;4.45;80.67;99728.09;4882602;29;20298;-78
2022/04/04 07:08:03;;;;;;;4.67;4.27;;;;;;;4.55;81.75;99725.19;4874728;29;20236;-78
2022/04/04 07:10:30;;;;;;;4.57;3.97;;;;;;;4.59;80.40;99737.94;4874264;29;20321;-79
2022/04/04 07:12:57;;;;;;;4.50;3.93;;;;;;;4.68;73.10;99728.91;4879404;29;20257;-79
2022/04/04 07:15:23;;;;;;;4.37;3.97;;;;;;;4.81;68.45;99722.97;4877202;29;20822;-79
2022/04/04 07:17:50;;;;;;;4.20;3.83;;;;;;;4.86;68.07;99723.25;4882668;29;20266;-79
2022/04/04 07:20:19;;;;;;;4.70;3.60;;;;;;;4.88;68.20;99722.09;4879034;29;20325;-79
2022/04/04 07:22:46;;;;;;;4.10;3.67;;;;;;;4.95;65.71;99719.50;4872289;29;20239;-79
2022/04/04 07:25:14;;;;;;;4.10;3.70;;;;;;;5.01;63.99;99723.28;4876684;29;20235;-79
2022/04/04 07:27:43;;;;;;;3.80;3.50;;;;;;;5.08;63.74;99727.69;4878986;29;20239;-78
2022/04/04 07:30:12;;;;;;;3.63;3.33;;;;;;;5.20;60.78;99718.25;4878737;29;20239;-79
2022/04/04 07:32:40;;;;;;;3.50;3.20;;;;;;;5.36;60.65;99724.41;4876724;29;20267;-79
2022/04/04 07:35:09;;;;;;;3.70;3.40;;;;;;;5.33;57.23;99712.31;4879226;29;20266;-79
2022/04/04 07:37:40;;;;;;;3.70;3.30;;;;;;;5.48;56.12;99721.09;4875412;29;20246;-78
2022/04/04 07:40:10;;;;;;;3.67;3.27;;;;;;;5.52;54.77;99719.72;4878456;29;20237;-79
2022/04/04 07:42:38;;;;;;;3.87;3.30;;;;;;;5.56;52.57;99722.81;4874925;29;20271;-78
2022/04/04 07:45:07;;;;;;;3.90;3.50;;;;;;;5.64;50.47;99722.75;4879086;29;20673;-78
2022/04/04 07:47:34;;;;;;;3.43;3.10;;;;;;;5.69;50.87;99723.00;4877318;29;20295;-79
2022/04/04 07:50:02;;;;;;;3.90;3.37;;;;;;;5.64;48.90;99717.44;4873027;29;20318;-79
2022/04/04 07:52:29;;;;;;;4.30;3.20;;;;;;;5.65;49.12;99713.72;4878753;29;20269;-79
2022/04/04 07:54:56;;;;;;;3.87;3.13;;;;;;;5.68;49.12;99706.22;4878672;29;20246;-78
2022/04/04 07:57:22;;;;;;;3.73;3.40;;;;;;;5.73;49.27;99711.81;4878681;29;20603;-78
2022/04/04 07:59:51;;;;;;;3.57;3.27;;;;;;;5.85;48.87;99706.00;4879100;29;20312;-78
2022/04/04 08:02:18;;;;;;;3.47;3.17;;;;;;;5.89;47.35;99700.16;4877648;29;20243;-79
2022/04/04 08:04:45;;;;;;;4.37;3.13;;;;;;;6.06;47.70;99696.25;4879053;29;20243;-78
2022/04/04 08:07:13;;;;;;;3.90;3.50;;;;;;;6.10;48.43;99686.88;4886897;29;20241;-78
2022/04/04 08:09:40;;;;;;;3.83;3.53;;;;;;;6.18;48.56;99693.91;4878864;29;20576;-78
2022/04/04 08:12:06;;;;;;;3.50;3.20;;;;;;;6.30;47.35;99699.56;4883427;29;20322;-79
2022/04/04 08:14:36;;;;;;;4.23;3.47;;;;;;;6.28;46.41;99688.28;4879836;29;20235;-78
2022/04/04 08:17:03;;;;;;;3.83;3.50;;;;;;;6.34;46.60;99691.00;4874292;29;20235;-78
2022/04/04 08:19:30;;;;;;;4.10;3.30;;;;;;;6.29;44.85;99688.09;4876626;29;20291;-78
2022/04/04 08:21:57;;;;;;;3.73;3.33;;;;;;;6.33;45.44;99684.03;4878834;29;20330;-78
2022/04/04 08:24:24;;;;;;;3.63;3.33;;;;;;;6.30;44.59;99670.28;4877315;29;20677;-79
2022/04/04 08:26:51;;;;;;;3.70;3.40;;;;;;;6.48;44.18;99673.31;4873486;29;20239;-79
2022/04/04 08:29:19;;;;;;;3.60;3.07;;;;;;;6.55;42.78;99663.53;4877810;29;20287;-78
2022/04/04 08:31:46;;;;;;;4.57;3.00;;;;;;;6.57;44.86;99674.84;4878221;29;20239;-79
2022/04/04 08:34:13;;;;;;;3.50;3.20;;;;;;;6.77;43.58;99666.97;4883904;29;20668;-79
2022/04/04 08:36:41;;;;;;;3.50;3.20;;;;;;;6.76;41.03;99660.84;4876720;29;20297;-79
2022/04/04 08:39:08;;;;;;;3.63;3.33;;;;;;;6.87;40.81;99654.13;4879508;29;20242;-79
2022/04/04 08:41:35;;;;;;;3.70;3.40;;;;;;;6.90;39.59;99656.44;4884328;29;20523;-79
2022/04/04 08:44:03;;;;;;;3.50;3.03;;;;;;;6.96;39.82;99659.13;4878262;29;20239;-79
2022/04/04 08:46:31;;;;;;;3.47;3.17;;;;;;;6.97;38.96;99652.78;4876691;29;20326;-79
2022/04/04 08:48:58;;;;;;;3.50;3.20;;;;;;;6.98;39.19;99646.44;4872907;29;20239;-78
2022/04/04 08:51:26;;;;;;;3.70;3.40;;;;;;;7.00;39.63;99644.38;4877277;29;20284;-78
2022/04/04 08:53:54;;;;;;;4.27;3.53;;;;;;;7.11;40.18;99640.34;4881083;29;20243;-79
2022/04/04 08:56:23;;;;;;;3.50;3.20;;;;;;;7.36;39.52;99636.19;4878642;29;20306;-78
2022/04/04 08:58:51;;;;;;;3.87;3.37;;;;;;;7.59;38.58;99635.84;4873859;29;20243;-78
2022/04/04 09:01:19;;;;;;;3.80;3.50;;;;;;;7.92;38.10;99634.09;4878051;29;20290;-79
2022/04/04 09:04:01;;;;;;;3.50;3.20;;;;;;;8.06;37.64;99631.44;4878083;29;20239;-78
2022/04/04 09:06:28;;;;;;;4.57;3.50;;;;;;;8.18;38.43;99622.63;4877539;29;20223;-79
2022/04/04 09:08:56;;;;;;;3.93;3.20;;;;;;;8.10;37.62;99619.34;4877932;29;20247;-78
2022/04/04 09:11:23;;;;;;;3.70;3.40;;;;;;;8.35;38.27;99620.44;4876854;29;20238;-78
2022/04/04 09:14:06;;;;;;;3.80;3.50;;;;;;;8.59;36.52;99614.44;4879012;29;20243;-79
2022/04/04 09:16:34;;;;;;;4.03;3.50;;;;;;;8.68;35.88;99610.53;4880599;29;20235;-78
2022/04/04 09:19:01;;;;;;;3.50;3.20;;;;;;;8.55;37.80;99610.53;4879963;29;20241;-78
2022/04/04 09:21:31;;;;;;;5.03;4.63;;;;;;;8.57;37.93;99607.69;4881154;29;20243;-78
2022/04/04 09:24:03;;;;;;;13.87;12.77;;;;;;;8.64;37.86;99603.13;4882115;29;20246;-79
2022/04/04 09:26:36;;;;;;;5.30;4.83;;;;;;;8.92;36.79;99597.53;4884130;29;20319;-79
2022/04/04 09:29:18;;;;;;;4.60;4.20;;;;;;;9.34;36.50;99599.66;4878320;29;20232;-78
2022/04/04 09:32:09;;;;;;;5.00;4.50;;;;;;;9.53;35.92;99600.59;4882763;29;20227;-79
2022/04/04 09:35:08;;;;;;;5.00;4.50;;;;;;;9.70;36.16;99586.50;4882193;29;20602;-79
2022/04/04 09:37:37;;;;;;;4.93;4.03;;;;;;;9.77;36.24;99585.66;4876972;29;20247;-78
2022/04/04 09:40:17;;;;;;;5.10;4.70;;;;;;;9.57;36.42;99585.75;4881165;29;20236;-78
2022/04/04 09:42:53;;;;;;;5.20;4.70;;;;;;;9.61;37.03;99582.44;4884599;29;20711;-79
2022/04/04 09:45:25;;;;;;;5.73;5.23;;;;;;;10.06;36.04;99577.03;4879581;29;20238;-78
2022/04/04 09:48:09;;;;;;;5.90;5.30;;;;;;;10.19;35.89;99573.44;4877953;29;20259;-79
2022/04/04 09:51:03;;;;;;;6.07;5.57;;;;;;;10.79;35.03;99563.81;4881736;29;20249;-78
2022/04/04 09:53:30;;;;;;;5.70;5.20;;;;;;;11.42;33.85;99569.69;4878341;29;20681;-79
2022/04/04 09:56:00;;;;;;;5.83;5.40;;;;;;;11.62;33.07;99553.31;4880698;29;20234;-79
2022/04/04 09:58:31;;;;;;;6.93;5.50;;;;;;;11.83;33.40;99548.28;4878916;29;20239;-78
2022/04/04 10:01:00;;;;;;;5.33;4.93;;;;;;;11.79;32.40;99547.09;4880488;29;20247;-78
2022/04/04 10:03:30;;;;;;;6.53;5.93;;;;;;;12.17;33.12;99541.34;4880328;29;20231;-78
2022/04/04 10:06:04;;;;;;;6.00;5.47;;;;;;;12.35;32.67;99537.72;4877922;29;20250;-79
2022/04/04 10:08:32;;;;;;;5.63;5.13;;;;;;;12.47;32.03;99529.66;4878539;29;20723;-78
2022/04/04 10:10:59;;;;;;;5.53;4.50;;;;;;;12.95;31.69;99524.81;4880405;29;20337;-78
2022/04/04 10:13:26;;;;;;;5.90;5.30;;;;;;;13.09;30.64;99520.81;4880185;29;20299;-79
2022/04/04 10:15:53;;;;;;;5.63;5.13;;;;;;;13.43;30.71;99519.09;4879513;29;20255;-79
2022/04/04 10:18:21;;;;;;;5.50;5.10;;;;;;;13.44;31.07;99519.88;4879671;29;20245;-79
2022/04/04 10:20:55;;;;;;;5.80;5.00;;;;;;;13.76;30.91;99512.94;4882139;29;20285;-79
2022/04/04 10:23:23;;;;;;;6.30;5.80;;;;;;;13.60;31.92;99502.97;4880765;29;20254;-79
2022/04/04 10:25:55;;;;;;;6.40;5.90;;;;;;;13.40;32.24;99510.66;4877206;29;20284;-79
2022/04/04 10:28:29;;;;;;;6.97;6.37;;;;;;;13.73;32.62;99494.56;4887016;29;20249;-79
2022/04/04 10:31:19;;;;;;;6.07;5.57;;;;;;;13.60;32.02;99487.63;4883069;29;20261;-79
2022/04/04 10:33:48;;;;;;;6.70;6.13;;;;;;;13.44;31.93;99492.97;4878988;29;20815;-79
2022/04/04 10:36:20;;;;;;;6.23;5.73;;;;;;;13.08;32.97;99478.00;4875900;29;20595;-79
2022/04/04 10:39:05;;;;;;;5.73;5.23;;;;;;;12.92;31.53;99476.91;4877162;29;20235;-79
2022/04/04 10:41:32;;;;;;;5.57;5.07;;;;;;;13.03;31.42;99470.66;4882357;29;20710;-79
2022/04/04 10:44:00;;;;;;;6.50;6.00;;;;;;;13.22;31.06;99463.25;4884069;29;20257;-79
2022/04/04 10:46:27;;;;;;;5.83;5.37;;;;;;;13.19;31.30;99453.78;4883840;29;20330;-79
2022/04/04 10:48:59;;;;;;;5.67;5.07;;;;;;;13.16;31.11;99448.88;4876773;29;20239;-79
2022/04/04 10:51:27;;;;;;;5.97;5.57;;;;;;;12.96;31.65;99453.03;4877377;29;20273;-79
2022/04/04 10:53:59;;;;;;;5.83;5.43;;;;;;;12.91;32.67;99458.31;4879219;29;20231;-79
2022/04/04 10:56:32;;;;;;;6.13;5.67;;;;;;;12.93;32.01;99450.78;4886832;29;20274;-79
2022/04/04 10:59:23;;;;;;;6.50;5.90;;;;;;;13.30;31.46;99443.22;4881799;29;20250;-79
2022/04/04 11:01:56;;;;;;;6.53;6.03;;;;;;;13.27;31.37;99436.44;4876873;29;20239;-79
2022/04/04 11:04:36;;;;;;;6.20;5.70;;;;;;;13.37;32.16;99428.53;4881063;29;20235;-79
2022/04/04 11:10:07;;;;;;;6.60;6.00;;;;;;;13.43;32.30;99426.78;4882954;29;20644;-79
2022/04/04 11:13:00;;;;;;;6.77;6.27;;;;;;;13.64;32.53;99418.78;4875691;29;20240;-79
2022/04/04 11:15:43;;;;;;;6.37;5.77;;;;;;;13.77;33.40;99419.50;4870909;29;20227;-79
2022/04/04 11:18:13;;;;;;;6.10;5.60;;;;;;;13.63;32.65;99408.25;4881302;29;21157;-79
2022/04/04 11:20:59;;;;;;;6.80;6.30;;;;;;;13.30;33.47;99408.25;4881787;29;20243;-79
2022/04/04 11:23:33;;;;;;;7.00;6.40;;;;;;;13.31;32.99;99399.91;4871774;29;20243;-79
2022/04/04 11:26:07;;;;;;;6.63;6.13;;;;;;;13.31;33.95;99405.28;4878356;29;20326;-79
2022/04/04 11:28:38;;;;;;;7.00;6.50;;;;;;;13.19;34.04;99399.16;4879596;29;20235;-78
2022/04/04 11:31:10;;;;;;;6.90;6.40;;;;;;;13.12;35.20;99393.94;4879370;29;20322;-79
2022/04/04 11:33:47;;;;;;;6.90;6.40;;;;;;;13.26;33.99;99396.31;4879373;29;20327;-79
2022/04/04 11:36:25;;;;;;;6.70;6.20;;;;;;;13.02;34.26;99393.69;4877664;29;20711;-79
2022/04/04 11:38:56;;;;;;;7.00;6.40;;;;;;;12.92;34.45;99384.66;4883874;29;20233;-79
2022/04/04 11:41:24;;;;;;;6.90;6.40;;;;;;;12.78;34.45;99384.91;4888045;29;20303;-79
2022/04/04 11:43:52;;;;;;;6.80;6.30;;;;;;;12.84;34.45;99379.63;4876684;29;20243;-79